West Clarksfield, Ohio
Current Conditions -  °F | °C
As of 8:53 AM on Saturday 25 Oct 2014 (Local Time) from KLPR Reporting Station
Haze Haze  
Wind Chill: 51°   Ceiling: 7000
Heat Index: 51°   Visibility: 6mi
Dew Point: 47°   Wind: 9mph
Humidity: 86%   Direction: 220°SW
Pressure: 29.91"   Gusts: NA
Location:  41.2376°N, 82.3866°W
Report Text: KLPR 251253Z AUTO 22008KT 6SM BR OVC070 11/08 A2991 RMK AO2 SLP128 T01060083 TSNO
Loading
Personal Weather Stations






























Interactive Weather Map
Tropical Storm Tracking
New forecast layout! Learn more

10-Day Weather Forecast

Advertisements
Track Severe Weather on mobile